createdAt,value
2022-12-25T00:02:27.218Z,87.56
2022-12-25T00:04:58.760Z,87.58
2022-12-25T00:07:29.918Z,87.82
2022-12-25T00:09:59.830Z,87.95
2022-12-25T00:12:30.968Z,88.08
2022-12-25T00:15:02.059Z,87.99
2022-12-25T00:17:33.424Z,87.76
2022-12-25T00:20:05.021Z,87.87
2022-12-25T00:22:36.146Z,88.00
2022-12-25T00:25:08.370Z,88.04
2022-12-25T00:27:39.576Z,88.10
2022-12-25T00:30:12.614Z,88.26
2022-12-25T00:32:43.564Z,88.11
2022-12-25T00:35:14.644Z,88.07
2022-12-25T00:37:45.617Z,87.93
2022-12-25T00:40:17.124Z,87.89
2022-12-25T00:42:46.496Z,87.80
2022-12-25T00:45:17.889Z,87.66
2022-12-25T00:47:49.039Z,87.51
2022-12-25T00:50:20.443Z,87.59
2022-12-25T00:52:51.834Z,87.63
2022-12-25T00:55:23.181Z,87.58
2022-12-25T00:57:54.174Z,87.57
2022-12-25T01:00:25.282Z,87.74
2022-12-25T01:02:54.972Z,87.79
2022-12-25T01:05:26.290Z,87.74
2022-12-25T01:07:57.630Z,87.75
2022-12-25T01:10:28.839Z,87.78
2022-12-25T01:12:59.993Z,87.63
2022-12-25T01:15:31.283Z,87.42
2022-12-25T01:18:07.639Z,87.38
2022-12-25T01:20:39.068Z,87.31
2022-12-25T01:23:10.347Z,87.20
2022-12-25T01:25:41.665Z,87.08
2022-12-25T01:28:12.598Z,86.98
2022-12-25T01:30:50.762Z,87.08
2022-12-25T01:33:22.158Z,87.12
2022-12-25T01:35:53.477Z,87.02
2022-12-25T01:38:24.483Z,86.92
2022-12-25T01:40:56.114Z,86.90
2022-12-25T01:43:29.820Z,86.85
2022-12-25T01:46:03.983Z,87.02
2022-12-25T01:48:38.434Z,87.02
2022-12-25T01:51:17.407Z,87.21
2022-12-25T01:53:48.694Z,87.24
2022-12-25T01:56:19.810Z,87.04
2022-12-25T01:58:50.857Z,87.11
2022-12-25T02:01:22.428Z,87.01
2022-12-25T02:03:59.600Z,86.97
2022-12-25T02:06:30.792Z,86.91
2022-12-25T02:09:02.459Z,86.90
2022-12-25T02:11:51.245Z,87.01
2022-12-25T02:14:22.721Z,87.01
2022-12-25T02:17:03.254Z,86.88
2022-12-25T02:20:03.687Z,86.88
2022-12-25T02:22:48.749Z,87.00
2022-12-25T02:25:37.599Z,87.35
2022-12-25T02:28:21.113Z,87.48
2022-12-25T02:31:00.548Z,87.31
2022-12-25T02:33:54.306Z,87.24
2022-12-25T02:36:40.571Z,87.18
2022-12-25T02:39:35.428Z,87.31
2022-12-25T02:42:11.961Z,87.23
2022-12-25T02:45:03.055Z,87.33
2022-12-25T02:47:49.966Z,87.56
2022-12-25T02:50:40.049Z,87.56
2022-12-25T02:53:30.085Z,87.54
2022-12-25T02:56:33.977Z,87.54
2022-12-25T02:59:23.640Z,87.74
2022-12-25T03:02:13.536Z,87.84
2022-12-25T03:05:03.358Z,88.07
2022-12-25T03:07:38.637Z,88.13
2022-12-25T03:10:32.813Z,88.13
2022-12-25T03:13:11.069Z,88.17
2022-12-25T03:15:59.670Z,88.15
2022-12-25T03:18:33.717Z,88.20
2022-12-25T03:21:22.576Z,88.34
2022-12-25T03:24:17.406Z,88.38
2022-12-25T03:26:57.743Z,88.35
2022-12-25T03:29:50.319Z,88.15
2022-12-25T03:32:40.362Z,87.90
2022-12-25T03:35:25.585Z,88.00
2022-12-25T03:38:30.729Z,87.96
2022-12-25T03:41:36.739Z,88.03
2022-12-25T03:44:47.196Z,88.28
2022-12-25T03:47:47.893Z,88.53
2022-12-25T03:50:42.403Z,88.48
2022-12-25T03:53:37.024Z,88.48
2022-12-25T03:56:26.108Z,88.68
2022-12-25T03:59:23.180Z,88.70
2022-12-25T04:02:12.572Z,88.95
2022-12-25T04:05:15.854Z,89.13
2022-12-25T04:08:04.809Z,89.05
2022-12-25T04:10:52.635Z,89.01
2022-12-25T04:13:41.102Z,88.92
2022-12-25T04:16:29.489Z,88.81
2022-12-25T04:19:18.364Z,88.76
2022-12-25T04:22:07.184Z,88.65
2022-12-25T04:24:55.782Z,88.78
2022-12-25T04:27:44.568Z,88.62
2022-12-25T04:30:33.515Z,88.69
2022-12-25T04:33:22.077Z,88.54
2022-12-25T04:36:11.739Z,88.74
2022-12-25T04:38:43.395Z,88.71
2022-12-25T04:41:15.684Z,88.76
2022-12-25T04:43:46.703Z,88.71
2022-12-25T04:46:18.136Z,88.57
2022-12-25T04:48:49.480Z,88.37
2022-12-25T04:51:20.051Z,88.46
2022-12-25T04:53:52.671Z,88.69
2022-12-25T04:56:24.176Z,88.69
2022-12-25T04:58:53.862Z,88.65
2022-12-25T05:01:25.288Z,88.76
2022-12-25T05:03:56.489Z,88.73
2022-12-25T05:06:27.454Z,88.74
2022-12-25T05:08:58.765Z,88.83
2022-12-25T05:11:29.921Z,88.92
2022-12-25T05:14:01.172Z,88.99
2022-12-25T05:16:32.728Z,89.03
2022-12-25T05:19:02.374Z,88.93
2022-12-25T05:21:33.398Z,88.88
2022-12-25T05:24:04.355Z,88.96
2022-12-25T05:26:35.457Z,89.31
2022-12-25T05:29:06.559Z,89.31
2022-12-25T05:31:37.720Z,89.40
2022-12-25T05:34:08.836Z,89.45
2022-12-25T05:36:41.161Z,89.83
2022-12-25T05:39:12.394Z,90.13
2022-12-25T05:41:43.551Z,90.39
2022-12-25T05:44:14.444Z,90.58
2022-12-25T05:46:45.830Z,90.51
2022-12-25T05:49:17.135Z,90.68
2022-12-25T05:51:48.122Z,90.61
2022-12-25T05:54:19.094Z,90.49
2022-12-25T05:56:50.129Z,90.34
2022-12-25T05:59:21.004Z,90.33
2022-12-25T06:01:52.143Z,90.22
2022-12-25T06:04:23.067Z,90.18
2022-12-25T06:06:54.446Z,89.96
2022-12-25T06:09:23.986Z,89.96
2022-12-25T06:11:54.865Z,89.87
2022-12-25T06:14:26.305Z,89.73
2022-12-25T06:16:57.560Z,89.71
2022-12-25T06:19:27.186Z,89.63
2022-12-25T06:21:58.421Z,89.51
2022-12-25T06:24:29.801Z,89.43
2022-12-25T06:27:01.186Z,89.50
2022-12-25T06:29:32.412Z,89.48
2022-12-25T06:32:03.564Z,89.39
2022-12-25T06:34:34.879Z,89.34
2022-12-25T06:37:06.263Z,89.02
2022-12-25T06:39:37.366Z,88.98
2022-12-25T06:42:08.663Z,88.82
2022-12-25T06:44:40.737Z,88.76
2022-12-25T06:47:12.045Z,88.83
2022-12-25T06:49:42.999Z,88.88
2022-12-25T06:52:14.413Z,88.74
2022-12-25T06:54:45.611Z,88.53
2022-12-25T06:57:16.099Z,88.66
2022-12-25T06:59:51.352Z,88.70
2022-12-25T07:02:27.421Z,88.77
2022-12-25T07:04:59.110Z,88.71
2022-12-25T07:07:28.483Z,88.62
2022-12-25T07:09:59.501Z,88.59
2022-12-25T07:12:31.032Z,88.49
2022-12-25T07:15:02.136Z,88.20
2022-12-25T07:17:35.685Z,88.01
2022-12-25T07:20:08.106Z,87.99
2022-12-25T07:22:39.085Z,88.04
2022-12-25T07:25:10.988Z,88.08
2022-12-25T07:27:42.561Z,88.00
2022-12-25T07:30:15.432Z,87.95
2022-12-25T07:32:50.109Z,87.89
2022-12-25T07:35:21.731Z,88.11
2022-12-25T07:37:52.985Z,88.08
2022-12-25T07:40:23.800Z,88.10
2022-12-25T07:42:54.857Z,87.93
2022-12-25T07:45:25.783Z,87.79
2022-12-25T07:47:59.958Z,87.81
2022-12-25T07:50:35.828Z,87.95
2022-12-25T07:53:07.138Z,88.01
2022-12-25T07:55:38.584Z,88.10
2022-12-25T07:58:09.728Z,88.13
2022-12-25T08:00:40.853Z,87.99
2022-12-25T08:03:12.434Z,87.91
2022-12-25T08:05:43.898Z,88.06
2022-12-25T08:08:15.112Z,88.09
2022-12-25T08:10:49.662Z,88.28
2022-12-25T08:13:20.827Z,88.34
2022-12-25T08:15:51.882Z,88.10
2022-12-25T08:18:29.392Z,88.11
2022-12-25T08:21:05.139Z,88.01
2022-12-25T08:23:38.603Z,87.99
2022-12-25T08:26:11.949Z,88.12
2022-12-25T08:28:43.251Z,88.10
2022-12-25T08:31:18.192Z,88.04
2022-12-25T08:33:50.638Z,88.06
2022-12-25T08:36:22.378Z,88.06
2022-12-25T08:39:00.396Z,88.09
2022-12-25T08:41:36.634Z,88.33
2022-12-25T08:44:08.372Z,88.06
2022-12-25T08:46:39.977Z,88.29
2022-12-25T08:49:11.388Z,88.35
2022-12-25T08:51:42.451Z,88.39
2022-12-25T08:54:13.509Z,88.38
2022-12-25T08:56:44.734Z,88.16
2022-12-25T08:59:14.219Z,88.28
2022-12-25T09:01:45.609Z,88.45
2022-12-25T09:04:17.218Z,88.61
2022-12-25T09:06:48.496Z,88.57
2022-12-25T09:09:17.850Z,88.66
2022-12-25T09:11:50.066Z,88.68
2022-12-25T09:14:21.105Z,88.75
2022-12-25T09:16:53.717Z,88.78
2022-12-25T09:19:24.898Z,88.78
2022-12-25T09:21:56.039Z,88.68
2022-12-25T09:24:27.126Z,88.68
2022-12-25T09:26:58.147Z,88.58
2022-12-25T09:29:27.890Z,88.56
2022-12-25T09:31:58.987Z,88.41
2022-12-25T09:34:30.226Z,88.24
2022-12-25T09:37:01.505Z,88.19
2022-12-25T09:39:30.921Z,88.11
2022-12-25T09:42:06.653Z,88.08
2022-12-25T09:44:41.620Z,88.01
2022-12-25T09:47:17.139Z,88.27
2022-12-25T09:49:55.351Z,88.25
2022-12-25T09:52:31.521Z,88.30
2022-12-25T09:55:14.729Z,88.24
2022-12-25T09:57:53.862Z,88.33
2022-12-25T10:00:29.285Z,88.36
2022-12-25T10:03:18.265Z,88.53
2022-12-25T10:06:09.091Z,88.72
2022-12-25T10:08:54.545Z,88.81
2022-12-25T10:11:39.382Z,88.91
2022-12-25T10:14:23.174Z,88.89
2022-12-25T10:17:07.214Z,88.80
2022-12-25T10:19:50.149Z,88.79
2022-12-25T10:22:27.821Z,88.77
2022-12-25T10:25:01.036Z,88.75
2022-12-25T10:27:37.750Z,88.68
2022-12-25T10:30:17.977Z,88.57
2022-12-25T10:32:50.535Z,88.57
2022-12-25T10:35:25.544Z,88.78
2022-12-25T10:38:01.542Z,88.88
2022-12-25T10:40:42.016Z,88.99
2022-12-25T10:43:17.136Z,88.86
2022-12-25T10:45:50.440Z,88.78
2022-12-25T10:48:27.673Z,88.70
2022-12-25T10:50:59.181Z,88.39
2022-12-25T10:53:38.600Z,88.32
2022-12-25T10:56:17.963Z,88.39
2022-12-25T10:58:48.902Z,88.57
2022-12-25T11:01:20.187Z,88.59
2022-12-25T11:03:54.626Z,88.49
2022-12-25T11:06:27.908Z,88.32
2022-12-25T11:09:00.591Z,88.38
2022-12-25T11:11:32.874Z,88.45
2022-12-25T11:14:04.865Z,88.55
2022-12-25T11:16:40.069Z,88.46
2022-12-25T11:19:27.431Z,88.48
2022-12-25T11:21:59.890Z,88.60
2022-12-25T11:24:32.317Z,88.56
2022-12-25T11:27:07.198Z,88.55
2022-12-25T11:29:44.598Z,88.51
2022-12-25T11:32:17.424Z,88.52
2022-12-25T11:34:50.266Z,88.56
2022-12-25T11:37:26.390Z,88.49
2022-12-25T11:39:57.731Z,88.18
2022-12-25T11:42:32.463Z,88.11
2022-12-25T11:45:09.137Z,88.02
2022-12-25T11:47:45.278Z,87.91
2022-12-25T11:50:26.411Z,87.78
2022-12-25T11:53:00.216Z,87.66
2022-12-25T11:55:37.396Z,87.67
2022-12-25T11:58:17.165Z,87.64
2022-12-25T12:00:50.969Z,87.70
2022-12-25T12:03:27.385Z,87.50
2022-12-25T12:06:03.597Z,87.42
2022-12-25T12:08:36.576Z,87.38
2022-12-25T12:11:18.092Z,87.44
2022-12-25T12:14:06.827Z,87.35
2022-12-25T12:16:38.589Z,87.30
2022-12-25T12:19:29.288Z,87.37
2022-12-25T12:22:03.813Z,87.40
2022-12-25T12:24:40.298Z,87.28
2022-12-25T12:27:28.164Z,87.31
2022-12-25T12:30:00.971Z,87.22
2022-12-25T12:32:40.699Z,87.20
2022-12-25T12:35:20.079Z,87.25
2022-12-25T12:37:56.745Z,87.15
2022-12-25T12:40:33.673Z,87.08
2022-12-25T12:43:06.095Z,87.26
2022-12-25T12:45:39.191Z,87.40
2022-12-25T12:48:26.131Z,87.56
2022-12-25T12:51:06.389Z,87.55
2022-12-25T12:53:39.975Z,87.54
2022-12-25T12:56:17.533Z,87.48
2022-12-25T12:58:51.326Z,87.29
2022-12-25T13:01:46.128Z,87.34
2022-12-25T13:04:49.372Z,87.40
2022-12-25T13:07:36.085Z,87.75
2022-12-25T13:10:20.008Z,87.92
2022-12-25T13:12:57.733Z,87.97
2022-12-25T13:15:34.217Z,88.04
2022-12-25T13:18:07.962Z,88.07
2022-12-25T13:20:46.201Z,88.05
2022-12-25T13:23:26.162Z,87.96
2022-12-25T13:25:59.301Z,87.86
2022-12-25T13:28:33.493Z,87.89
2022-12-25T13:31:15.132Z,87.89
2022-12-25T13:33:50.152Z,87.90
2022-12-25T13:36:21.327Z,87.85
2022-12-25T13:38:55.190Z,87.84
2022-12-25T13:41:46.382Z,87.80
2022-12-25T13:44:22.522Z,87.81
2022-12-25T13:46:53.955Z,87.74
2022-12-25T13:49:26.208Z,87.56
2022-12-25T13:52:13.408Z,87.55
2022-12-25T13:54:55.830Z,87.59
2022-12-25T13:57:31.574Z,87.54
2022-12-25T14:00:02.808Z,87.46
2022-12-25T14:02:38.321Z,87.56
2022-12-25T14:05:27.969Z,87.55
2022-12-25T14:08:02.539Z,87.49
2022-12-25T14:10:38.981Z,87.40
2022-12-25T14:13:13.847Z,87.36
2022-12-25T14:15:47.987Z,87.38
2022-12-25T14:18:21.696Z,87.44
2022-12-25T14:21:02.388Z,87.40
2022-12-25T14:23:42.973Z,87.25
2022-12-25T14:26:20.195Z,87.31
2022-12-25T14:28:51.575Z,87.30
2022-12-25T14:31:24.824Z,87.19
2022-12-25T14:33:56.164Z,87.33
2022-12-25T14:36:27.289Z,87.28
2022-12-25T14:39:03.350Z,87.38
2022-12-25T14:41:38.764Z,87.39
2022-12-25T14:44:38.672Z,87.36
2022-12-25T14:47:18.689Z,87.67
2022-12-25T14:49:51.140Z,87.57
2022-12-25T14:52:26.443Z,87.63
2022-12-25T14:55:01.584Z,87.55
2022-12-25T14:57:38.457Z,87.59
2022-12-25T15:00:22.143Z,87.78
2022-12-25T15:02:55.736Z,87.88
2022-12-25T15:05:32.994Z,87.85
2022-12-25T15:08:24.978Z,87.80
2022-12-25T15:11:01.225Z,87.85
2022-12-25T15:13:32.394Z,88.14
2022-12-25T15:16:10.428Z,88.33
2022-12-25T15:18:44.529Z,88.84
2022-12-25T15:21:19.018Z,89.19
2022-12-25T15:23:50.168Z,89.16
2022-12-25T15:26:19.525Z,89.11
2022-12-25T15:28:50.691Z,89.02
2022-12-25T15:31:25.124Z,88.91
2022-12-25T15:33:57.510Z,88.76
2022-12-25T15:36:29.465Z,88.59
2022-12-25T15:39:00.753Z,88.81
2022-12-25T15:41:54.622Z,88.69
2022-12-25T15:44:26.671Z,88.62
2022-12-25T15:46:57.923Z,88.41
2022-12-25T15:49:27.185Z,88.27
2022-12-25T15:51:58.237Z,88.43
2022-12-25T15:54:29.207Z,88.62
2022-12-25T15:57:03.241Z,88.94
2022-12-25T15:59:34.627Z,88.83
2022-12-25T16:02:14.441Z,88.73
2022-12-25T16:04:46.209Z,88.70
2022-12-25T16:07:19.855Z,88.60
2022-12-25T16:09:51.114Z,88.72
2022-12-25T16:12:21.008Z,88.64
2022-12-25T16:14:50.611Z,88.71
2022-12-25T16:17:21.779Z,88.62
2022-12-25T16:19:52.669Z,88.48
2022-12-25T16:22:26.658Z,88.44
2022-12-25T16:24:57.818Z,88.24
2022-12-25T16:27:28.713Z,88.49
2022-12-25T16:29:59.734Z,88.61
2022-12-25T16:32:30.769Z,88.62
2022-12-25T16:35:00.377Z,88.71
2022-12-25T16:37:31.675Z,88.88
2022-12-25T16:40:02.656Z,88.77
2022-12-25T16:42:34.549Z,88.69
2022-12-25T16:45:06.641Z,88.54
2022-12-25T16:47:37.742Z,88.61
2022-12-25T16:50:11.242Z,88.41
2022-12-25T16:52:42.394Z,88.38
2022-12-25T16:55:13.755Z,88.52
2022-12-25T16:57:43.288Z,88.57
2022-12-25T17:00:16.273Z,88.64
2022-12-25T17:02:47.806Z,88.71
2022-12-25T17:05:19.216Z,88.67
2022-12-25T17:07:50.399Z,88.76
2022-12-25T17:10:22.626Z,88.75
2022-12-25T17:12:53.813Z,88.51
2022-12-25T17:15:23.309Z,88.37
2022-12-25T17:17:54.314Z,88.35
2022-12-25T17:20:25.333Z,88.33
2022-12-25T17:22:57.747Z,88.34
2022-12-25T17:25:28.842Z,88.43
2022-12-25T17:28:00.074Z,88.48
2022-12-25T17:30:29.517Z,88.47
2022-12-25T17:33:00.565Z,88.51
2022-12-25T17:35:32.044Z,88.57
2022-12-25T17:38:03.344Z,88.50
2022-12-25T17:40:34.322Z,88.48
2022-12-25T17:43:05.455Z,88.41
2022-12-25T17:45:38.915Z,88.40
2022-12-25T17:48:09.957Z,88.25
2022-12-25T17:50:41.810Z,88.22
2022-12-25T17:53:13.181Z,88.27
2022-12-25T17:55:42.782Z,88.30
2022-12-25T17:58:13.767Z,88.28
2022-12-25T18:00:43.341Z,88.36
2022-12-25T18:03:14.695Z,88.47
2022-12-25T18:05:46.836Z,88.37
2022-12-25T18:08:17.949Z,88.22
2022-12-25T18:10:49.334Z,88.49
2022-12-25T18:13:20.416Z,88.68
2022-12-25T18:15:51.862Z,88.92
2022-12-25T18:18:23.115Z,89.02
2022-12-25T18:20:54.065Z,89.05
2022-12-25T18:23:25.135Z,89.12
2022-12-25T18:25:56.512Z,89.23
2022-12-25T18:28:26.071Z,89.06
2022-12-25T18:30:56.951Z,89.10
2022-12-25T18:33:28.540Z,88.97
2022-12-25T18:36:02.513Z,89.20
2022-12-25T18:38:33.980Z,89.21
2022-12-25T18:41:07.928Z,89.02
2022-12-25T18:43:53.847Z,89.05
2022-12-25T18:46:27.856Z,88.85
2022-12-25T18:48:59.436Z,88.72
2022-12-25T18:51:36.643Z,88.76
2022-12-25T18:54:08.493Z,88.79
2022-12-25T18:56:39.595Z,88.86
2022-12-25T18:59:09.061Z,88.71
2022-12-25T19:01:40.363Z,88.75
2022-12-25T19:04:12.871Z,89.12
2022-12-25T19:06:44.089Z,89.72
2022-12-25T19:09:15.383Z,89.38
2022-12-25T19:11:47.060Z,89.26
2022-12-25T19:14:19.207Z,89.38
2022-12-25T19:16:52.182Z,89.13
2022-12-25T19:19:24.090Z,89.05
2022-12-25T19:21:56.731Z,89.03
2022-12-25T19:24:27.854Z,88.99
2022-12-25T19:26:59.348Z,89.01
2022-12-25T19:29:30.220Z,88.83
2022-12-25T19:32:01.778Z,88.72
2022-12-25T19:34:33.202Z,88.44
2022-12-25T19:37:04.803Z,88.43
2022-12-25T19:39:35.902Z,88.57
2022-12-25T19:42:05.501Z,88.80
2022-12-25T19:44:36.511Z,88.89
2022-12-25T19:47:07.741Z,88.98
2022-12-25T19:49:40.677Z,88.81
2022-12-25T19:52:12.106Z,88.90
2022-12-25T19:54:41.625Z,88.97
2022-12-25T19:57:12.573Z,88.63
2022-12-25T19:59:44.006Z,88.61
2022-12-25T20:02:14.976Z,88.70
2022-12-25T20:04:44.433Z,88.69
2022-12-25T20:07:15.575Z,88.92
2022-12-25T20:09:46.576Z,89.16
2022-12-25T20:12:17.520Z,89.19
2022-12-25T20:14:49.389Z,89.03
2022-12-25T20:17:20.424Z,88.69
2022-12-25T20:19:51.496Z,88.60
2022-12-25T20:22:21.180Z,88.40
2022-12-25T20:24:52.157Z,88.54
2022-12-25T20:27:23.419Z,88.66
2022-12-25T20:29:54.571Z,88.72
2022-12-25T20:32:25.767Z,88.85
2022-12-25T20:34:56.883Z,88.84
2022-12-25T20:37:28.455Z,88.70
2022-12-25T20:39:59.470Z,88.61
2022-12-25T20:42:30.774Z,88.54
2022-12-25T20:45:01.620Z,88.59
2022-12-25T20:47:33.681Z,88.82
2022-12-25T20:50:05.155Z,88.91
2022-12-25T20:52:36.460Z,88.88
2022-12-25T20:55:08.415Z,88.67
2022-12-25T20:57:39.497Z,88.82
2022-12-25T21:00:12.845Z,88.79
2022-12-25T21:02:44.400Z,88.67
2022-12-25T21:05:15.697Z,88.62
2022-12-25T21:07:45.527Z,88.42
2022-12-25T21:10:16.844Z,88.47
2022-12-25T21:12:47.875Z,88.63
2022-12-25T21:15:19.133Z,88.67
2022-12-25T21:17:48.614Z,88.64
2022-12-25T21:20:19.932Z,88.76
2022-12-25T21:22:51.169Z,88.81
2022-12-25T21:25:20.556Z,88.70
2022-12-25T21:27:51.624Z,88.67
2022-12-25T21:30:21.089Z,88.57
2022-12-25T21:33:16.952Z,88.61
2022-12-25T21:35:48.369Z,88.63
2022-12-25T21:38:19.374Z,88.70
2022-12-25T21:40:50.471Z,88.74
2022-12-25T21:43:21.902Z,88.78
2022-12-25T21:45:52.979Z,88.59
2022-12-25T21:48:24.037Z,88.51
2022-12-25T21:51:12.872Z,88.48
2022-12-25T21:53:44.059Z,88.42
2022-12-25T21:56:14.933Z,88.26
2022-12-25T21:58:47.305Z,88.35
2022-12-25T22:01:18.415Z,88.30
2022-12-25T22:03:47.933Z,88.29
2022-12-25T22:06:36.804Z,88.35
2022-12-25T22:09:09.904Z,88.44
2022-12-25T22:11:58.478Z,88.50
2022-12-25T22:14:52.904Z,88.49
2022-12-25T22:17:43.572Z,88.64
2022-12-25T22:20:16.818Z,88.82
2022-12-25T22:22:49.340Z,88.78
2022-12-25T22:25:21.444Z,88.84
2022-12-25T22:27:52.993Z,88.67
2022-12-25T22:30:26.826Z,88.72
2022-12-25T22:32:58.054Z,88.57
2022-12-25T22:35:27.480Z,88.51
2022-12-25T22:37:58.902Z,88.47
2022-12-25T22:40:30.152Z,88.59
2022-12-25T22:43:01.029Z,88.46
2022-12-25T22:45:32.148Z,88.46
2022-12-25T22:48:03.071Z,88.35
2022-12-25T22:50:34.201Z,88.38
2022-12-25T22:53:05.207Z,88.68
2022-12-25T22:55:36.225Z,88.68
2022-12-25T22:58:07.369Z,88.62
2022-12-25T23:00:42.591Z,88.62
2022-12-25T23:03:17.206Z,88.63
2022-12-25T23:05:53.942Z,88.61
2022-12-25T23:08:25.419Z,88.80
2022-12-25T23:10:56.502Z,88.89
2022-12-25T23:13:45.109Z,88.80
2022-12-25T23:16:18.180Z,88.78
2022-12-25T23:19:06.746Z,88.62
2022-12-25T23:21:55.828Z,88.65
2022-12-25T23:24:44.743Z,88.93
2022-12-25T23:27:15.826Z,89.05
2022-12-25T23:29:46.929Z,89.33
2022-12-25T23:32:24.969Z,89.33
2022-12-25T23:34:56.781Z,89.18
2022-12-25T23:37:27.890Z,89.30
2022-12-25T23:40:02.430Z,89.34
2022-12-25T23:42:33.496Z,89.36
2022-12-25T23:45:05.078Z,89.28
2022-12-25T23:47:36.627Z,88.90
2022-12-25T23:50:08.635Z,88.80
2022-12-25T23:52:39.886Z,88.99
2022-12-25T23:55:11.984Z,89.21
2022-12-25T23:57:43.133Z,89.37
